Time;durP1;ratioP1;P1;durP2;ratioP2;P2;SDS_P1;SDS_P2;PMS_P1;PMS_P2;Temp;Humidity;BMP_temperature;BMP_pressure;BME280_temperature;BME280_humidity;BME280_pressure;Samples;Min_cycle;Max_cycle;Signal;HPM_P1;HPM_P2
2022/05/09 00:02:04;;;;;;;9.38;2.88;;;;;;;9.76;57.12;102317.69;5108154;28;20039;-68
2022/05/09 00:04:30;;;;;;;9.43;2.67;;;;;;;9.73;57.05;102317.78;5109963;27;20048;-68
2022/05/09 00:06:58;;;;;;;10.30;3.03;;;;;;;9.61;57.38;102315.44;5124259;27;20035;-69
2022/05/09 00:09:24;;;;;;;9.70;2.55;;;;;;;9.94;56.44;102300.69;5107660;27;20043;-69
2022/05/09 00:11:51;;;;;;;10.32;2.72;;;;;;;9.27;59.42;102315.31;5108476;27;20043;-68
2022/05/09 00:14:18;;;;;;;6.70;2.33;;;;;;;9.27;59.21;102314.47;5106977;28;20118;-68
2022/05/09 00:16:44;;;;;;;8.85;2.67;;;;;;;9.34;59.52;102317.81;5108452;27;20075;-68
2022/05/09 00:19:13;;;;;;;8.20;2.60;;;;;;;9.31;59.55;102318.75;5107771;28;20089;-68
2022/05/09 00:21:41;;;;;;;9.23;2.72;;;;;;;9.31;60.42;102310.91;5108364;27;20453;-68
2022/05/09 00:24:13;;;;;;;7.60;2.80;;;;;;;9.39;59.75;102324.66;5108145;27;20467;-68
2022/05/09 00:26:39;;;;;;;9.68;2.90;;;;;;;9.58;59.57;102320.75;5107843;27;20093;-68
2022/05/09 00:29:07;;;;;;;14.68;2.92;;;;;;;9.74;60.04;102329.97;5107362;27;20051;-68
2022/05/09 00:31:33;;;;;;;8.82;2.92;;;;;;;9.97;60.29;102321.59;5107793;28;20051;-68
2022/05/09 00:34:00;;;;;;;11.52;3.05;;;;;;;10.12;60.49;102326.47;5109361;27;20097;-68
2022/05/09 00:36:26;;;;;;;7.65;2.95;;;;;;;10.31;60.03;102326.03;5108176;27;20187;-68
2022/05/09 00:38:53;;;;;;;8.02;3.42;;;;;;;10.52;59.33;102328.97;5107438;27;20468;-68
2022/05/09 00:41:34;;;;;;;6.72;2.72;;;;;;;10.64;58.80;102326.00;5107626;27;20116;-68
2022/05/09 00:44:03;;;;;;;9.15;2.88;;;;;;;10.85;57.67;102335.06;5107666;28;20128;-68
2022/05/09 00:46:30;;;;;;;11.45;3.00;;;;;;;10.89;57.49;102331.44;5107901;27;20071;-68
2022/05/09 00:49:02;;;;;;;8.93;3.17;;;;;;;10.84;57.37;102335.09;5104351;27;20120;-68
2022/05/09 00:51:29;;;;;;;9.18;2.83;;;;;;;10.68;56.59;102330.25;5107622;27;20089;-68
2022/05/09 00:54:01;;;;;;;6.45;2.88;;;;;;;10.55;57.18;102331.50;5101035;28;20051;-68
2022/05/09 00:56:35;;;;;;;5.78;2.88;;;;;;;10.43;57.41;102326.56;5112453;27;20104;-68
2022/05/09 00:59:06;;;;;;;11.48;2.67;;;;;;;10.35;58.10;102339.00;5108381;28;20479;-68
2022/05/09 01:01:32;;;;;;;8.02;2.78;;;;;;;10.30;58.63;102337.41;5109731;28;20070;-68
2022/05/09 01:04:05;;;;;;;8.25;2.92;;;;;;;10.36;57.61;102339.88;5109196;27;20112;-68
2022/05/09 01:06:32;;;;;;;9.02;2.83;;;;;;;10.31;57.64;102332.09;5101149;28;20558;-68
2022/05/09 01:08:59;;;;;;;11.40;3.50;;;;;;;10.21;57.95;102330.63;5108905;27;20422;-68
2022/05/09 01:11:28;;;;;;;8.55;3.05;;;;;;;10.28;57.48;102332.19;5107772;27;20047;-68
2022/05/09 01:14:04;;;;;;;7.63;2.88;;;;;;;10.17;58.40;102336.84;5109131;28;20465;-67
2022/05/09 01:16:31;;;;;;;7.32;3.10;;;;;;;10.03;58.98;102334.53;5109219;28;20071;-69
2022/05/09 01:18:59;;;;;;;8.60;2.83;;;;;;;9.70;60.51;102338.81;5106535;27;20044;-68
2022/05/09 01:21:33;;;;;;;12.60;3.17;;;;;;;9.57;60.47;102337.34;5109244;27;20047;-68
2022/05/09 01:24:00;;;;;;;11.70;3.13;;;;;;;9.57;59.62;102331.28;5109200;28;20381;-68
2022/05/09 01:26:26;;;;;;;7.47;3.03;;;;;;;9.71;59.67;102337.91;5107891;27;20051;-68
2022/05/09 01:28:56;;;;;;;9.68;3.05;;;;;;;9.70;60.04;102341.44;5104984;28;20043;-68
2022/05/09 01:31:22;;;;;;;10.13;3.15;;;;;;;9.70;58.55;102335.31;5108519;28;20097;-68
2022/05/09 01:33:51;;;;;;;11.10;3.30;;;;;;;9.63;59.72;102347.69;5108795;27;20128;-68
2022/05/09 01:36:21;;;;;;;6.93;3.00;;;;;;;9.31;61.95;102344.94;5108399;27;20046;-68
2022/05/09 01:38:55;;;;;;;12.13;3.30;;;;;;;9.18;63.39;102346.06;5104940;27;20063;-68
2022/05/09 01:41:22;;;;;;;13.30;3.88;;;;;;;9.08;62.51;102341.91;5108046;27;20040;-68
2022/05/09 01:43:51;;;;;;;7.95;2.72;;;;;;;9.33;61.68;102350.09;5106611;28;20122;-68
2022/05/09 01:46:20;;;;;;;7.68;2.88;;;;;;;9.07;62.67;102342.78;5096728;28;20498;-68
2022/05/09 01:51:30;;;;;;;10.07;3.05;;;;;;;8.95;63.36;102341.28;5083969;28;20040;-68
2022/05/09 01:53:58;;;;;;;11.85;3.60;;;;;;;9.09;62.01;102349.72;5107691;28;20457;-68
2022/05/09 01:56:27;;;;;;;7.18;3.08;;;;;;;8.97;62.80;102346.50;5108276;27;20495;-68
2022/05/09 01:58:54;;;;;;;5.93;2.42;;;;;;;9.08;62.67;102341.91;5107108;27;20044;-68
2022/05/09 02:01:22;;;;;;;7.90;2.67;;;;;;;8.99;62.59;102349.91;5102192;28;20093;-69
2022/05/09 02:03:49;;;;;;;10.88;2.92;;;;;;;9.08;62.57;102345.38;5088178;28;20044;-69
2022/05/09 02:06:17;;;;;;;10.40;3.10;;;;;;;8.90;63.32;102342.28;5097480;28;20487;-68
2022/05/09 02:08:44;;;;;;;8.68;2.92;;;;;;;8.56;64.22;102353.34;5107020;27;20047;-68
2022/05/09 02:11:11;;;;;;;10.20;2.58;;;;;;;8.55;64.08;102342.91;5113583;27;20048;-68
2022/05/09 02:13:38;;;;;;;8.35;3.10;;;;;;;8.37;65.68;102345.84;5108016;27;20044;-68
2022/05/09 02:16:05;;;;;;;8.18;2.92;;;;;;;8.36;65.63;102346.72;5108473;28;20420;-68
2022/05/09 02:18:32;;;;;;;6.90;2.67;;;;;;;8.57;65.06;102343.75;5102563;27;20044;-68
2022/05/09 02:20:59;;;;;;;10.50;3.40;;;;;;;8.56;65.27;102347.25;5107553;27;20092;-69
2022/05/09 02:23:25;;;;;;;9.82;2.92;;;;;;;8.60;65.20;102338.47;5102998;27;20096;-69
2022/05/09 02:25:53;;;;;;;9.55;3.42;;;;;;;8.62;65.28;102348.00;5109076;27;20507;-68
2022/05/09 02:28:21;;;;;;;7.22;2.95;;;;;;;8.58;65.09;102350.69;5108067;27;20093;-68
2022/05/09 02:30:48;;;;;;;8.07;2.92;;;;;;;8.66;65.23;102346.19;5107353;28;20062;-68
2022/05/09 02:33:15;;;;;;;10.40;3.58;;;;;;;8.76;65.62;102348.59;5108576;28;20093;-68
2022/05/09 02:35:43;;;;;;;11.35;3.20;;;;;;;8.92;63.40;102349.19;5107630;28;20039;-68
2022/05/09 02:38:09;;;;;;;8.88;3.22;;;;;;;9.01;62.20;102348.16;5111551;28;20051;-68
2022/05/09 02:40:36;;;;;;;11.00;3.67;;;;;;;9.07;62.69;102350.63;5111376;27;20071;-68
2022/05/09 02:43:03;;;;;;;8.20;3.40;;;;;;;9.04;64.32;102350.72;5112473;27;20048;-68
2022/05/09 02:45:31;;;;;;;8.52;3.10;;;;;;;8.95;64.28;102350.88;5112447;27;20127;-68
2022/05/09 02:47:58;;;;;;;8.35;3.10;;;;;;;8.92;64.79;102348.31;5109944;28;20116;-68
2022/05/09 02:50:26;;;;;;;12.80;3.45;;;;;;;8.87;64.89;102340.56;5107880;27;20051;-68
2022/05/09 02:52:54;;;;;;;6.65;3.00;;;;;;;8.90;64.50;102348.38;5112346;27;20113;-68
2022/05/09 02:55:21;;;;;;;6.63;2.78;;;;;;;8.77;65.10;102339.00;5111915;27;20039;-68
2022/05/09 02:57:48;;;;;;;7.43;2.95;;;;;;;8.62;66.54;102342.78;5103920;27;20104;-68
2022/05/09 03:00:18;;;;;;;8.40;4.05;;;;;;;8.74;65.86;102344.31;5111116;27;20044;-68
2022/05/09 03:04:38;;;;;;;10.45;3.60;;;;;;;8.60;66.92;102341.97;5112235;27;20047;-68
2022/05/09 03:05:33;;;;;;;14.63;3.90;;;;;;;8.36;67.46;102339.75;5111212;27;20134;-68
2022/05/09 03:07:59;;;;;;;9.52;3.33;;;;;;;8.28;67.89;102352.94;5111897;28;20070;-68
2022/05/09 03:10:28;;;;;;;11.10;3.38;;;;;;;8.03;68.94;102350.72;5104112;27;20613;-68
2022/05/09 03:12:59;;;;;;;6.68;3.30;;;;;;;8.05;68.94;102354.19;5111435;27;20456;-68
2022/05/09 03:15:25;;;;;;;13.60;3.88;;;;;;;8.11;68.48;102348.84;5111310;28;20510;-68
2022/05/09 03:17:53;;;;;;;12.07;3.85;;;;;;;8.11;68.30;102351.47;5111328;27;20085;-68
2022/05/09 03:20:20;;;;;;;8.55;3.08;;;;;;;8.21;67.94;102350.44;5110521;27;20087;-68
2022/05/09 03:22:47;;;;;;;8.00;3.38;;;;;;;8.25;67.21;102352.97;5111860;27;20576;-68
2022/05/09 03:25:13;;;;;;;9.90;3.05;;;;;;;8.01;67.60;102358.59;5108496;27;20067;-68
2022/05/09 03:27:39;;;;;;;6.97;2.90;;;;;;;7.97;67.77;102361.28;5110374;27;20392;-68
2022/05/09 03:30:07;;;;;;;10.25;3.08;;;;;;;7.88;68.04;102357.03;5109558;27;20089;-69
2022/05/09 03:32:35;;;;;;;11.45;3.30;;;;;;;7.70;68.29;102357.31;5111021;27;20071;-68
2022/05/09 03:35:03;;;;;;;12.55;3.33;;;;;;;7.65;68.36;102354.75;5109378;27;20047;-68
2022/05/09 03:37:30;;;;;;;15.48;3.30;;;;;;;7.55;68.88;102358.38;5111301;27;20079;-68
2022/05/09 03:39:57;;;;;;;10.10;3.15;;;;;;;7.58;68.97;102358.34;5110503;27;20039;-68
2022/05/09 03:42:23;;;;;;;12.60;3.25;;;;;;;7.66;69.17;102353.00;5109238;27;20085;-68
2022/05/09 03:44:49;;;;;;;11.07;3.38;;;;;;;7.74;68.79;102352.03;5104879;27;20412;-68
2022/05/09 03:47:16;;;;;;;11.07;3.50;;;;;;;7.90;68.26;102354.41;5110727;27;20059;-68
2022/05/09 03:49:42;;;;;;;8.13;3.35;;;;;;;7.87;68.25;102350.09;5108970;27;20048;-68
2022/05/09 03:52:10;;;;;;;13.73;3.60;;;;;;;7.67;68.72;102353.00;5110759;27;20058;-68
2022/05/09 03:54:37;;;;;;;12.10;3.80;;;;;;;7.73;68.92;102355.53;5110971;27;20621;-68
2022/05/09 03:57:04;;;;;;;10.02;3.33;;;;;;;7.90;68.39;102357.03;5110525;27;20063;-68
2022/05/09 03:59:30;;;;;;;11.35;4.18;;;;;;;8.04;68.25;102358.56;5110014;28;20085;-69
2022/05/09 04:01:57;;;;;;;10.63;3.80;;;;;;;8.12;67.94;102355.81;5109898;27;20070;-68
2022/05/09 04:04:23;;;;;;;12.70;3.83;;;;;;;8.03;68.20;102356.81;5111833;27;20403;-69
2022/05/09 04:06:51;;;;;;;11.68;3.70;;;;;;;7.84;68.75;102358.84;5110277;27;20044;-68
2022/05/09 04:09:19;;;;;;;11.45;3.70;;;;;;;7.99;68.59;102354.25;5109651;27;20048;-68
2022/05/09 04:11:47;;;;;;;10.65;3.53;;;;;;;7.86;68.96;102358.84;5110567;28;20052;-68
2022/05/09 04:14:13;;;;;;;8.05;3.70;;;;;;;7.91;68.93;102359.59;5108545;27;20046;-68
2022/05/09 04:16:51;;;;;;;10.98;3.55;;;;;;;7.84;69.16;102361.44;5110573;27;20100;-68
2022/05/09 04:19:17;;;;;;;11.18;3.25;;;;;;;8.05;68.33;102365.50;5098047;28;20051;-69
2022/05/09 04:21:44;;;;;;;26.15;3.72;;;;;;;8.13;67.98;102368.84;5110271;27;20089;-69
2022/05/09 04:24:11;;;;;;;10.05;3.80;;;;;;;8.16;68.08;102367.94;5109960;27;20043;-69
2022/05/09 04:26:39;;;;;;;10.25;3.95;;;;;;;8.23;68.02;102365.22;5110378;27;20550;-69
2022/05/09 04:29:06;;;;;;;12.25;3.80;;;;;;;8.38;67.63;102358.91;5108158;27;20047;-69
2022/05/09 04:31:33;;;;;;;11.88;3.55;;;;;;;8.35;68.02;102358.97;5109841;27;20043;-68
2022/05/09 04:34:00;;;;;;;11.40;3.67;;;;;;;8.17;68.83;102367.03;5110228;28;20042;-68
2022/05/09 04:36:29;;;;;;;11.73;3.88;;;;;;;7.92;70.24;102370.91;5110044;28;20036;-68
2022/05/09 04:38:55;;;;;;;20.27;4.03;;;;;;;8.02;70.61;102362.91;5109915;28;20043;-68
2022/05/09 04:41:22;;;;;;;10.45;3.65;;;;;;;8.27;69.96;102361.66;5110344;27;20043;-68
2022/05/09 04:43:50;;;;;;;26.88;4.07;;;;;;;8.44;69.79;102361.41;5109898;27;20043;-69
2022/05/09 04:46:16;;;;;;;9.55;3.58;;;;;;;8.67;69.14;102372.31;5105741;27;20047;-69
2022/05/09 04:48:44;;;;;;;9.73;3.47;;;;;;;8.93;68.96;102376.22;5109340;28;20052;-68
2022/05/09 04:51:12;;;;;;;12.32;3.85;;;;;;;9.20;67.98;102370.47;5109457;28;20044;-68
2022/05/09 04:53:39;;;;;;;9.05;3.35;;;;;;;9.34;67.93;102372.78;5109921;27;20073;-69
2022/05/09 04:56:06;;;;;;;9.23;4.03;;;;;;;9.26;67.86;102371.19;5108892;27;20488;-69
2022/05/09 04:58:32;;;;;;;15.88;4.22;;;;;;;9.37;67.89;102370.09;5109610;27;20040;-69
2022/05/09 05:01:00;;;;;;;12.88;4.07;;;;;;;9.54;67.84;102379.31;5112060;27;20381;-68
2022/05/09 05:03:26;;;;;;;12.70;4.13;;;;;;;10.01;66.81;102377.41;5110443;27;20552;-69
2022/05/09 05:05:54;;;;;;;24.55;5.18;;;;;;;10.01;67.50;102367.78;5109147;28;20071;-69
2022/05/09 05:08:21;;;;;;;11.05;3.95;;;;;;;10.51;66.58;102368.31;5109493;27;20476;-69
2022/05/09 05:10:52;;;;;;;11.82;4.03;;;;;;;10.71;65.89;102374.81;5108794;27;20102;-69
2022/05/09 05:13:19;;;;;;;12.03;4.43;;;;;;;10.94;65.57;102376.78;5109318;27;20046;-69
2022/05/09 05:15:47;;;;;;;13.13;4.45;;;;;;;11.48;64.15;102373.50;5109284;27;20067;-69
2022/05/09 05:18:19;;;;;;;11.18;5.05;;;;;;;11.68;63.14;102381.63;5109134;28;20482;-69
2022/05/09 05:20:45;;;;;;;12.20;3.95;;;;;;;11.74;63.84;102376.25;5108258;28;20048;-69
2022/05/09 05:23:12;;;;;;;24.45;4.45;;;;;;;11.91;63.16;102383.59;5109727;28;20039;-69
2022/05/09 05:25:40;;;;;;;19.83;4.78;;;;;;;11.77;63.28;102383.16;5109197;27;20079;-68
2022/05/09 05:28:07;;;;;;;10.90;3.95;;;;;;;12.26;62.61;102374.59;5109117;27;20479;-68
2022/05/09 05:30:35;;;;;;;12.38;4.50;;;;;;;12.78;60.66;102381.59;5108386;28;20035;-68
2022/05/09 05:33:02;;;;;;;12.73;4.03;;;;;;;13.13;59.55;102375.97;5109016;28;20518;-68
2022/05/09 05:35:30;;;;;;;14.02;3.88;;;;;;;13.06;59.70;102377.94;5108924;28;20101;-68
2022/05/09 05:37:57;;;;;;;11.20;4.78;;;;;;;13.23;59.62;102377.34;5109535;28;20541;-68
2022/05/09 05:40:24;;;;;;;9.48;4.10;;;;;;;13.14;59.92;102372.44;5107800;27;20044;-68
2022/05/09 05:42:52;;;;;;;13.90;4.35;;;;;;;13.72;58.43;102373.72;5108818;27;20102;-68
2022/05/09 05:45:21;;;;;;;10.20;4.22;;;;;;;13.81;57.86;102377.78;5108485;27;20388;-68
2022/05/09 05:47:48;;;;;;;10.25;4.25;;;;;;;14.36;56.51;102369.41;5109040;28;24684;-68
2022/05/09 05:50:16;;;;;;;9.80;4.15;;;;;;;14.97;54.38;102383.47;5107698;28;20048;-68
2022/05/09 05:52:44;;;;;;;11.48;3.45;;;;;;;14.58;54.91;102379.91;5106533;28;20101;-68
2022/05/09 05:55:10;;;;;;;8.45;3.88;;;;;;;14.46;57.36;102377.78;5108795;27;20039;-68
2022/05/09 05:57:39;;;;;;;8.73;3.80;;;;;;;14.81;57.31;102376.28;5109281;27;20066;-68
2022/05/09 06:00:09;;;;;;;9.88;3.70;;;;;;;14.50;56.34;102377.59;5107697;28;20035;-68
2022/05/09 06:02:38;;;;;;;13.20;4.35;;;;;;;14.99;56.00;102373.69;5108926;28;20088;-68
2022/05/09 06:05:05;;;;;;;10.05;3.38;;;;;;;15.38;52.78;102378.09;5108654;28;20552;-68
2022/05/09 06:07:32;;;;;;;10.50;3.88;;;;;;;15.60;53.80;102378.84;5108030;28;20044;-68
2022/05/09 06:09:59;;;;;;;10.50;3.97;;;;;;;16.25;51.80;102372.22;5114473;27;20449;-68
2022/05/09 06:12:26;;;;;;;10.65;4.22;;;;;;;16.84;50.57;102380.66;5107478;27;20043;-68
2022/05/09 06:17:34;;;;;;;12.85;3.85;;;;;;;15.66;53.90;102385.66;5108114;28;20043;-68
2022/05/09 06:20:00;;;;;;;9.55;3.60;;;;;;;15.47;53.67;102388.28;5107834;28;20472;-73
2022/05/09 06:22:27;;;;;;;16.63;4.53;;;;;;;15.92;52.84;102388.81;5109065;27;20043;-68
2022/05/09 06:24:58;;;;;;;11.03;4.30;;;;;;;16.45;51.26;102382.63;5108360;27;20453;-68
2022/05/09 06:27:26;;;;;;;9.65;3.67;;;;;;;16.74;51.26;102381.22;5108926;27;20574;-68
2022/05/09 06:29:52;;;;;;;13.45;4.10;;;;;;;16.97;50.70;102380.88;5108141;28;20055;-68
2022/05/09 06:32:23;;;;;;;13.40;4.05;;;;;;;17.34;49.13;102377.97;5108328;28;20085;-68
2022/05/09 06:34:50;;;;;;;18.33;5.13;;;;;;;17.53;47.83;102373.38;5109238;28;20715;-68
2022/05/09 06:37:16;;;;;;;14.32;4.50;;;;;;;17.67;45.43;102382.41;5108992;28;20043;-68
2022/05/09 06:39:43;;;;;;;10.75;3.70;;;;;;;17.97;43.41;102378.03;5115400;27;20048;-68
2022/05/09 06:42:10;;;;;;;12.63;3.92;;;;;;;17.92;45.72;102377.47;5109405;28;20047;-68
2022/05/09 06:44:37;;;;;;;12.82;4.50;;;;;;;18.15;46.47;102384.94;5108778;27;20067;-68
2022/05/09 06:47:05;;;;;;;11.27;3.97;;;;;;;17.51;44.88;102380.56;5102559;28;20096;-68
2022/05/09 06:49:32;;;;;;;13.48;4.20;;;;;;;17.20;48.27;102380.50;5104463;27;20039;-68
2022/05/09 06:51:59;;;;;;;15.23;4.35;;;;;;;17.74;47.18;102381.97;5106083;28;20079;-68
2022/05/09 06:54:25;;;;;;;10.77;3.78;;;;;;;18.47;46.55;102377.78;5108499;27;20104;-68
2022/05/09 06:56:52;;;;;;;12.52;4.07;;;;;;;19.02;43.15;102390.44;5108122;27;20047;-68
2022/05/09 06:59:19;;;;;;;14.90;3.90;;;;;;;18.34;45.79;102390.91;5097516;27;20052;-68
2022/05/09 07:01:48;;;;;;;14.52;4.32;;;;;;;19.16;41.18;102391.31;5106166;27;20043;-68
2022/05/09 07:04:15;;;;;;;12.43;4.22;;;;;;;19.38;43.41;102388.19;5108611;27;20085;-68
2022/05/09 07:06:41;;;;;;;14.65;3.95;;;;;;;18.61;43.75;102383.16;5117421;27;20430;-68
2022/05/09 07:09:10;;;;;;;22.33;5.45;;;;;;;18.80;44.36;102381.13;5128512;27;20072;-68
2022/05/09 07:11:36;;;;;;;33.20;5.93;;;;;;;19.05;43.75;102387.59;5115553;27;20040;-68
2022/05/09 07:14:03;;;;;;;18.02;4.45;;;;;;;19.06;47.35;102387.53;5108147;27;20096;-68
2022/05/09 07:16:30;;;;;;;12.98;4.18;;;;;;;19.66;43.56;102390.81;5108274;27;20468;-68
2022/05/09 07:18:58;;;;;;;16.25;4.32;;;;;;;19.83;42.50;102384.44;5108103;27;20043;-68
2022/05/09 07:21:25;;;;;;;12.07;3.70;;;;;;;20.40;41.94;102379.78;5107334;28;20065;-68
2022/05/09 07:23:51;;;;;;;16.42;4.03;;;;;;;20.30;41.51;102381.34;5109706;28;20092;-68
2022/05/09 07:26:18;;;;;;;9.45;4.70;;;;;;;19.73;41.37;102383.34;5112880;27;20067;-68
2022/05/09 07:28:45;;;;;;;20.45;4.60;;;;;;;19.84;42.65;102384.31;5111701;27;20449;-68
2022/05/09 07:31:12;;;;;;;16.40;5.10;;;;;;;20.03;39.94;102391.16;5112008;28;20555;-68
2022/05/09 07:33:38;;;;;;;12.52;4.15;;;;;;;20.80;42.98;102385.94;5112362;27;20047;-68
2022/05/09 07:36:06;;;;;;;12.30;3.80;;;;;;;21.25;40.52;102380.09;5114161;27;20051;-69
2022/05/09 07:38:33;;;;;;;16.45;4.65;;;;;;;21.67;37.90;102380.66;5112569;27;20043;-68
2022/05/09 07:40:59;;;;;;;10.77;4.10;;;;;;;22.06;36.61;102377.75;5110667;28;20480;-68
2022/05/09 07:43:28;;;;;;;14.77;3.97;;;;;;;22.14;38.10;102385.19;5112060;27;20063;-68
2022/05/09 07:45:56;;;;;;;13.27;3.83;;;;;;;21.77;39.42;102392.38;5111746;27;20040;-68
2022/05/09 07:48:24;;;;;;;12.85;4.25;;;;;;;22.01;40.26;102385.28;5111744;27;20055;-68
2022/05/09 07:50:51;;;;;;;12.55;4.63;;;;;;;22.53;39.27;102379.56;5112115;27;20483;-68
2022/05/09 07:53:22;;;;;;;16.67;4.45;;;;;;;22.65;38.96;102377.75;5111969;27;20047;-68
2022/05/09 07:55:49;;;;;;;10.75;3.58;;;;;;;23.09;34.85;102390.41;5111197;27;20056;-68
2022/05/09 07:58:16;;;;;;;9.15;3.67;;;;;;;22.91;36.45;102384.63;5109403;27;20052;-68
2022/05/09 08:00:45;;;;;;;13.13;4.57;;;;;;;21.93;38.49;102382.31;5110748;27;20052;-68
2022/05/09 08:03:15;;;;;;;9.52;3.88;;;;;;;21.71;36.21;102377.66;5107080;28;20067;-68
2022/05/09 08:05:42;;;;;;;8.65;4.05;;;;;;;21.73;37.44;102386.41;5113426;27;20132;-68
2022/05/09 08:08:10;;;;;;;13.23;4.13;;;;;;;22.31;38.21;102368.78;5119552;27;20069;-68
2022/05/09 08:10:38;;;;;;;14.63;4.30;;;;;;;22.93;39.26;102364.00;5131904;27;20050;-68
2022/05/09 08:13:05;;;;;;;13.68;4.40;;;;;;;22.99;37.84;102363.50;5117504;27;20047;-68
2022/05/09 08:15:31;;;;;;;13.30;4.38;;;;;;;22.69;36.26;102368.53;5111133;27;20708;-68
2022/05/09 08:17:58;;;;;;;10.27;4.20;;;;;;;23.54;37.63;102370.69;5111988;28;20487;-68
2022/05/09 08:20:25;;;;;;;8.25;3.78;;;;;;;24.27;37.44;102361.16;5111179;28;20461;-68
2022/05/09 08:22:59;;;;;;;10.52;4.35;;;;;;;24.16;34.13;102359.38;5111920;27;20098;-68
2022/05/09 08:25:26;;;;;;;12.35;3.85;;;;;;;24.64;31.81;102354.38;5114273;27;20544;-68
2022/05/09 08:27:54;;;;;;;10.25;4.22;;;;;;;24.21;35.66;102358.00;5111446;27;20050;-68
2022/05/09 08:30:21;;;;;;;11.90;4.50;;;;;;;24.14;34.24;102364.84;5111406;28;20043;-68
2022/05/09 08:32:47;;;;;;;8.13;3.65;;;;;;;24.31;33.80;102357.25;5112097;27;20048;-68
2022/05/09 08:35:14;;;;;;;10.40;4.18;;;;;;;24.90;31.31;102353.03;5111543;27;20065;-68
2022/05/09 08:37:40;;;;;;;10.15;4.00;;;;;;;24.02;32.36;102357.78;5111914;28;20048;-68
2022/05/09 08:40:08;;;;;;;13.07;4.60;;;;;;;23.32;35.62;102356.47;5111050;27;20176;-69
2022/05/09 08:42:41;;;;;;;9.85;3.88;;;;;;;23.52;35.56;102366.44;5111331;27;20104;-68
2022/05/09 08:45:27;;;;;;;10.40;3.38;;;;;;;24.38;35.35;102355.75;5111380;27;20043;-68
2022/05/09 08:48:10;;;;;;;19.60;3.80;;;;;;;24.54;32.51;102350.75;5111057;28;20042;-68
2022/05/09 08:50:49;;;;;;;10.98;3.92;;;;;;;25.03;33.42;102350.97;5110550;28;20039;-68
2022/05/09 08:53:22;;;;;;;8.90;3.50;;;;;;;25.15;29.32;102349.88;5111039;27;20059;-68
2022/05/09 08:55:51;;;;;;;9.18;3.40;;;;;;;23.91;34.41;102349.78;5110972;27;20553;-68
2022/05/09 08:58:32;;;;;;;10.15;3.47;;;;;;;24.88;32.99;102349.59;5110623;27;20039;-68
2022/05/09 09:01:03;;;;;;;10.03;3.83;;;;;;;24.85;31.76;102360.59;5111936;27;20074;-68
2022/05/09 09:03:32;;;;;;;11.60;3.42;;;;;;;25.28;32.69;102359.53;5110585;28;20055;-68
2022/05/09 09:06:04;;;;;;;11.25;4.00;;;;;;;25.71;30.88;102348.53;5110943;27;20069;-68
2022/05/09 09:08:38;;;;;;;14.43;3.95;;;;;;;25.94;30.18;102345.44;5110550;28;20085;-68
2022/05/09 09:11:13;;;;;;;12.20;3.78;;;;;;;25.15;31.08;102351.72;5109762;27;20143;-68
2022/05/09 09:13:55;;;;;;;9.88;3.22;;;;;;;25.01;33.30;102346.72;5110724;27;20092;-68
2022/05/09 09:16:29;;;;;;;;;;;;;;;25.31;32.07;102340.50;5111322;27;20068;-68
2022/05/09 09:19:25;;;;;;;14.98;4.28;;;;;;;24.96;29.32;102344.44;5121543;27;19972;-68
2022/05/09 09:21:58;;;;;;;12.18;4.38;;;;;;;22.87;33.35;102343.06;5132475;28;20028;-68
2022/05/09 09:24:39;;;;;;;14.32;3.90;;;;;;;23.36;34.21;102341.84;5129463;28;20118;-68
2022/05/09 09:27:19;;;;;;;11.23;3.85;;;;;;;23.95;31.16;102343.22;5114357;27;20100;-68
2022/05/09 09:29:49;;;;;;;8.63;2.65;;;;;;;24.90;29.52;102331.56;5113792;28;20600;-68
2022/05/09 09:32:20;;;;;;;13.77;4.05;;;;;;;25.52;28.24;102317.97;5113832;27;20065;-68
2022/05/09 09:34:53;;;;;;;13.57;3.42;;;;;;;25.39;27.13;102329.88;5113119;28;20052;-67
2022/05/09 09:37:21;;;;;;;17.60;2.97;;;;;;;25.67;29.47;102321.09;5112839;28;20040;-67
2022/05/09 09:39:48;;;;;;;11.35;3.13;;;;;;;25.48;30.59;102312.97;5112908;28;20070;-67
2022/05/09 09:42:14;;;;;;;12.38;3.00;;;;;;;25.41;28.24;102314.50;5112825;28;20032;-68
2022/05/09 09:44:44;;;;;;;11.95;2.60;;;;;;;25.67;31.03;102313.03;5112846;27;20048;-68
2022/05/09 09:47:21;;;;;;;8.85;3.03;;;;;;;25.08;28.79;102313.84;5111977;28;20411;-68
2022/05/09 09:50:10;;;;;;;11.02;2.95;;;;;;;25.08;26.83;102312.97;5112206;28;20048;-68
2022/05/09 09:52:42;;;;;;;6.20;2.50;;;;;;;24.56;29.45;102313.94;5124050;27;20045;-68
2022/05/09 09:55:18;;;;;;;8.57;2.85;;;;;;;25.33;32.85;102317.03;5126506;27;20462;-68
2022/05/09 09:57:46;;;;;;;19.23;3.30;;;;;;;24.91;29.58;102303.72;5112046;27;20043;-68
2022/05/09 10:00:19;;;;;;;10.02;3.10;;;;;;;25.73;31.57;102303.56;5111393;28;20120;-69
2022/05/09 10:02:46;;;;;;;12.13;3.28;;;;;;;25.85;28.80;102297.06;5111865;28;20055;-69
2022/05/09 10:05:15;;;;;;;9.57;2.67;;;;;;;25.00;26.23;102299.38;5111426;28;20047;-69
2022/05/09 10:07:44;;;;;;;9.02;3.55;;;;;;;24.21;28.29;102301.72;5093306;28;20048;-68
2022/05/09 10:10:12;;;;;;;14.18;3.45;;;;;;;24.54;28.86;102294.44;5100134;28;20039;-68
2022/05/09 10:12:40;;;;;;;11.52;3.38;;;;;;;24.05;27.41;102293.25;5111592;28;20052;-68
2022/05/09 10:15:23;;;;;;;9.55;3.28;;;;;;;23.30;28.65;102295.03;5106971;27;20089;-68
2022/05/09 10:17:50;;;;;;;10.85;3.53;;;;;;;24.54;29.69;102294.44;5090181;28;20491;-68
2022/05/09 10:20:28;;;;;;;10.15;3.13;;;;;;;24.77;27.47;102296.00;5090885;28;20048;-68
2022/05/09 10:26:00;;;;;;;11.63;2.78;;;;;;;25.06;27.65;102288.94;5109336;27;20058;-68
2022/05/09 10:28:31;;;;;;;8.05;3.13;;;;;;;24.97;30.74;102289.78;5109153;27;20036;-68
2022/05/09 10:31:05;;;;;;;14.57;3.40;;;;;;;25.00;27.85;102284.13;5108598;27;20065;-68
2022/05/09 10:33:39;;;;;;;9.93;3.72;;;;;;;26.11;28.06;102285.63;5109818;28;20404;-68
2022/05/09 10:36:15;;;;;;;10.90;3.45;;;;;;;26.13;31.24;102270.19;5109082;27;20089;-69
2022/05/09 10:38:47;;;;;;;8.88;2.97;;;;;;;26.58;27.28;102267.72;5108082;27;20414;-69
2022/05/09 10:41:21;;;;;;;9.40;2.88;;;;;;;26.53;27.29;102266.47;5108942;28;20036;-69
2022/05/09 10:43:53;;;;;;;7.63;2.72;;;;;;;26.68;25.58;102259.59;5108959;27;20066;-68
2022/05/09 10:46:21;;;;;;;;;;;;;;;26.01;24.09;102257.91;5109319;27;20383;-68
2022/05/09 10:48:57;;;;;;;8.73;2.60;;;;;;;25.23;24.30;102244.50;5103013;28;19955;-69
2022/05/09 10:51:32;;;;;;;5.40;2.53;;;;;;;25.66;25.14;102244.16;5100489;28;20488;-68
2022/05/09 10:54:06;;;;;;;6.57;2.75;;;;;;;26.02;26.98;102247.97;5121913;27;20043;-68
2022/05/09 10:56:39;;;;;;;9.25;3.05;;;;;;;23.41;27.02;102246.81;5108879;27;20039;-68
2022/05/09 10:59:09;;;;;;;7.68;2.63;;;;;;;24.52;30.45;102248.16;5111180;27;20469;-68
2022/05/09 11:01:43;;;;;;;4.85;2.28;;;;;;;25.90;27.41;102246.44;5112350;28;20059;-68
2022/05/09 11:04:10;;;;;;;8.73;2.50;;;;;;;26.82;27.68;102243.00;5112603;28;20568;-68
2022/05/09 11:06:48;;;;;;;7.07;2.67;;;;;;;27.03;23.54;102230.16;5112719;28;20067;-68
2022/05/09 11:09:30;;;;;;;7.63;2.53;;;;;;;26.00;22.69;102237.38;5111937;27;20051;-68
2022/05/09 11:12:29;;;;;;;7.80;2.38;;;;;;;26.01;23.47;102225.66;5092091;28;20097;-73
2022/05/09 11:15:10;;;;;;;9.05;2.80;;;;;;;25.70;24.29;102228.63;5104721;27;20097;-69
2022/05/09 11:17:53;;;;;;;7.20;2.80;;;;;;;24.99;23.26;102211.81;5113572;27;20415;-69
2022/05/09 11:20:29;;;;;;;9.23;3.20;;;;;;;24.96;23.60;102204.88;5111886;27;20079;-69
2022/05/09 11:23:10;;;;;;;5.60;2.10;;;;;;;24.44;23.94;102208.59;5111972;27;20096;-70
2022/05/09 11:25:56;;;;;;;6.38;3.00;;;;;;;24.89;22.65;102205.56;5111951;27;20069;-69
2022/05/09 11:28:38;;;;;;;6.47;2.20;;;;;;;24.28;28.53;102200.16;5112350;27;20050;-69
2022/05/09 11:31:16;;;;;;;8.48;2.42;;;;;;;25.71;27.17;102187.34;5111977;27;20105;-69
2022/05/09 11:33:53;;;;;;;7.28;2.35;;;;;;;26.16;24.97;102188.41;5112803;27;20047;-69
2022/05/09 11:36:32;;;;;;;10.88;2.50;;;;;;;25.84;28.93;102188.72;5114244;27;20044;-69
2022/05/09 11:39:08;;;;;;;6.20;2.42;;;;;;;25.53;24.23;102184.53;5128954;27;20047;-70
2022/05/09 11:41:42;;;;;;;10.68;2.67;;;;;;;24.27;22.49;102186.91;5111782;28;20046;-69
2022/05/09 11:44:13;;;;;;;5.85;2.20;;;;;;;24.65;23.08;102187.94;5112504;27;20039;-70